sensor_id;sensor_type;location;lat;lon;timestamp;pressure;altitude;pressure_sealevel;temperature;humidity
48636;BME280;34429;52.332;5.614;2022-08-03T00:02:13;101469.44;;;19.73;100.00
48636;BME280;34429;52.332;5.614;2022-08-03T00:04:41;101460.72;;;19.70;100.00
48636;BME280;34429;52.332;5.614;2022-08-03T00:07:11;101476.16;;;19.63;100.00
48636;BME280;34429;52.332;5.614;2022-08-03T00:09:39;101463.22;;;19.56;100.00
48636;BME280;34429;52.332;5.614;2022-08-03T00:12:07;101465.66;;;19.51;100.00
48636;BME280;34429;52.332;5.614;2022-08-03T00:14:35;101467.03;;;19.47;100.00
48636;BME280;34429;52.332;5.614;2022-08-03T00:17:04;101467.69;;;19.49;100.00
48636;BME280;34429;52.332;5.614;2022-08-03T00:19:32;101465.47;;;19.53;100.00
48636;BME280;34429;52.332;5.614;2022-08-03T00:22:00;101456.19;;;19.62;100.00
48636;BME280;34429;52.332;5.614;2022-08-03T00:24:30;101453.72;;;19.52;100.00
48636;BME280;34429;52.332;5.614;2022-08-03T00:27:00;101449.19;;;19.59;100.00
48636;BME280;34429;52.332;5.614;2022-08-03T00:29:28;101458.06;;;19.61;100.00
48636;BME280;34429;52.332;5.614;2022-08-03T00:31:56;101464.66;;;19.44;100.00
48636;BME280;34429;52.332;5.614;2022-08-03T00:34:24;101455.84;;;19.34;100.00
48636;BME280;34429;52.332;5.614;2022-08-03T00:36:52;101452.31;;;19.25;100.00
48636;BME280;34429;52.332;5.614;2022-08-03T00:39:20;101460.50;;;19.25;100.00
48636;BME280;34429;52.332;5.614;2022-08-03T00:41:51;101456.59;;;19.28;100.00
48636;BME280;34429;52.332;5.614;2022-08-03T00:44:19;101452.16;;;19.26;100.00
48636;BME280;34429;52.332;5.614;2022-08-03T00:46:47;101456.94;;;19.24;100.00
48636;BME280;34429;52.332;5.614;2022-08-03T00:49:15;101464.81;;;19.19;100.00
48636;BME280;34429;52.332;5.614;2022-08-03T00:51:43;101454.56;;;19.21;100.00
48636;BME280;34429;52.332;5.614;2022-08-03T00:54:11;101451.84;;;19.21;100.00
48636;BME280;34429;52.332;5.614;2022-08-03T00:56:39;101458.44;;;19.27;100.00
48636;BME280;34429;52.332;5.614;2022-08-03T00:59:10;101447.00;;;19.32;100.00
48636;BME280;34429;52.332;5.614;2022-08-03T01:01:39;101459.66;;;19.24;100.00
48636;BME280;34429;52.332;5.614;2022-08-03T01:04:07;101448.31;;;19.36;100.00
48636;BME280;34429;52.332;5.614;2022-08-03T01:06:39;101449.56;;;19.33;100.00
48636;BME280;34429;52.332;5.614;2022-08-03T01:09:11;101454.28;;;19.39;100.00
48636;BME280;34429;52.332;5.614;2022-08-03T01:11:43;101452.78;;;19.37;100.00
48636;BME280;34429;52.332;5.614;2022-08-03T01:14:16;101446.91;;;19.48;100.00
48636;BME280;34429;52.332;5.614;2022-08-03T01:16:51;101442.22;;;19.34;100.00
48636;BME280;34429;52.332;5.614;2022-08-03T01:19:35;101447.00;;;19.32;100.00
48636;BME280;34429;52.332;5.614;2022-08-03T01:22:17;101445.69;;;19.19;100.00
48636;BME280;34429;52.332;5.614;2022-08-03T01:24:49;101452.88;;;19.20;100.00
48636;BME280;34429;52.332;5.614;2022-08-03T01:27:25;101448.78;;;19.16;100.00
48636;BME280;34429;52.332;5.614;2022-08-03T01:30:02;101456.44;;;19.21;100.00
48636;BME280;34429;52.332;5.614;2022-08-03T01:32:33;101446.88;;;19.25;100.00
48636;BME280;34429;52.332;5.614;2022-08-03T01:35:03;101449.63;;;19.17;100.00
48636;BME280;34429;52.332;5.614;2022-08-03T01:37:34;101449.88;;;19.07;100.00
48636;BME280;34429;52.332;5.614;2022-08-03T01:40:04;101453.63;;;19.06;100.00
48636;BME280;34429;52.332;5.614;2022-08-03T01:42:33;101450.34;;;19.11;100.00
48636;BME280;34429;52.332;5.614;2022-08-03T01:45:06;101449.88;;;19.07;100.00
48636;BME280;34429;52.332;5.614;2022-08-03T01:47:35;101441.03;;;18.97;100.00
48636;BME280;34429;52.332;5.614;2022-08-03T01:50:04;101435.94;;;18.94;100.00
48636;BME280;34429;52.332;5.614;2022-08-03T01:52:32;101435.94;;;18.94;100.00
48636;BME280;34429;52.332;5.614;2022-08-03T01:55:00;101431.66;;;18.99;100.00
48636;BME280;34429;52.332;5.614;2022-08-03T01:57:30;101429.78;;;19.00;100.00
48636;BME280;34429;52.332;5.614;2022-08-03T01:59:58;101429.13;;;18.98;100.00
48636;BME280;34429;52.332;5.614;2022-08-03T02:02:33;101431.50;;;19.01;100.00
48636;BME280;34429;52.332;5.614;2022-08-03T02:05:02;101430.06;;;19.05;100.00
48636;BME280;34429;52.332;5.614;2022-08-03T02:07:32;101430.44;;;19.02;100.00
48636;BME280;34429;52.332;5.614;2022-08-03T02:10:02;101428.06;;;18.99;100.00
48636;BME280;34429;52.332;5.614;2022-08-03T02:12:30;101431.16;;;18.96;100.00
48636;BME280;34429;52.332;5.614;2022-08-03T02:14:59;101431.84;;;18.98;100.00
48636;BME280;34429;52.332;5.614;2022-08-03T02:17:28;101431.13;;;19.04;100.00
48636;BME280;34429;52.332;5.614;2022-08-03T02:19:59;101430.25;;;19.03;100.00
48636;BME280;34429;52.332;5.614;2022-08-03T02:22:28;101438.09;;;19.06;100.00
48636;BME280;34429;52.332;5.614;2022-08-03T02:24:58;101440.66;;;19.08;100.00
48636;BME280;34429;52.332;5.614;2022-08-03T02:27:26;101428.94;;;18.99;100.00
48636;BME280;34429;52.332;5.614;2022-08-03T02:29:57;101430.66;;;18.92;100.00
48636;BME280;34429;52.332;5.614;2022-08-03T02:32:29;101432.88;;;18.88;100.00
48636;BME280;34429;52.332;5.614;2022-08-03T02:35:01;101431.50;;;18.93;100.00
48636;BME280;34429;52.332;5.614;2022-08-03T02:37:31;101431.50;;;18.93;100.00
48636;BME280;34429;52.332;5.614;2022-08-03T02:40:01;101419.94;;;18.90;100.00
48636;BME280;34429;52.332;5.614;2022-08-03T02:42:31;101419.88;;;18.99;100.00
48636;BME280;34429;52.332;5.614;2022-08-03T02:45:00;101418.19;;;18.98;100.00
48636;BME280;34429;52.332;5.614;2022-08-03T02:47:29;101403.06;;;19.18;100.00
48636;BME280;34429;52.332;5.614;2022-08-03T02:50:01;101401.38;;;19.17;100.00
48636;BME280;34429;52.332;5.614;2022-08-03T02:52:29;101408.84;;;18.92;100.00
48636;BME280;34429;52.332;5.614;2022-08-03T02:55:01;101404.09;;;18.86;100.00
48636;BME280;34429;52.332;5.614;2022-08-03T02:57:29;101405.94;;;18.85;100.00
48636;BME280;34429;52.332;5.614;2022-08-03T03:00:00;101403.91;;;18.79;100.00
48636;BME280;34429;52.332;5.614;2022-08-03T03:02:28;101407.69;;;18.86;100.00
48636;BME280;34429;52.332;5.614;2022-08-03T03:04:57;101406.28;;;18.82;100.00
48636;BME280;34429;52.332;5.614;2022-08-03T03:07:29;101402.22;;;18.78;100.00
48636;BME280;34429;52.332;5.614;2022-08-03T03:09:58;101403.56;;;18.90;100.00
48636;BME280;34429;52.332;5.614;2022-08-03T03:12:27;101391.78;;;18.90;100.00
48636;BME280;34429;52.332;5.614;2022-08-03T03:14:56;101403.75;;;18.81;100.00
48636;BME280;34429;52.332;5.614;2022-08-03T03:17:24;101401.84;;;18.81;100.00
48636;BME280;34429;52.332;5.614;2022-08-03T03:19:52;101398.47;;;18.79;100.00
48636;BME280;34429;52.332;5.614;2022-08-03T03:22:20;101401.38;;;18.78;100.00
48636;BME280;34429;52.332;5.614;2022-08-03T03:24:52;101396.63;;;18.71;100.00
48636;BME280;34429;52.332;5.614;2022-08-03T03:27:21;101396.75;;;18.78;100.00
48636;BME280;34429;52.332;5.614;2022-08-03T03:29:49;101390.94;;;18.81;100.00
48636;BME280;34429;52.332;5.614;2022-08-03T03:32:18;101395.22;;;18.84;100.00
48636;BME280;34429;52.332;5.614;2022-08-03T03:34:46;101391.63;;;18.91;100.00
48636;BME280;34429;52.332;5.614;2022-08-03T03:37:14;101386.53;;;18.88;100.00
48636;BME280;34429;52.332;5.614;2022-08-03T03:39:42;101391.66;;;18.75;100.00
48636;BME280;34429;52.332;5.614;2022-08-03T03:42:13;101390.47;;;18.78;100.00
48636;BME280;34429;52.332;5.614;2022-08-03T03:44:41;101397.13;;;18.75;100.00
48636;BME280;34429;52.332;5.614;2022-08-03T03:47:09;101397.81;;;18.77;100.00
48636;BME280;34429;52.332;5.614;2022-08-03T03:49:37;101399.19;;;18.65;100.00
48636;BME280;34429;52.332;5.614;2022-08-03T03:52:07;101405.38;;;18.59;100.00
48636;BME280;34429;52.332;5.614;2022-08-03T03:54:38;101393.81;;;18.56;100.00
48636;BME280;34429;52.332;5.614;2022-08-03T03:57:07;101397.19;;;18.59;100.00
48636;BME280;34429;52.332;5.614;2022-08-03T03:59:39;101401.28;;;18.54;100.00
48636;BME280;34429;52.332;5.614;2022-08-03T04:02:08;101400.94;;;18.58;100.00
48636;BME280;34429;52.332;5.614;2022-08-03T04:04:36;101397.19;;;18.59;100.00
48636;BME280;34429;52.332;5.614;2022-08-03T04:07:17;101408.56;;;18.62;100.00
48636;BME280;34429;52.332;5.614;2022-08-03T04:09:58;101402.75;;;18.73;100.00
48636;BME280;34429;52.332;5.614;2022-08-03T04:12:39;101403.63;;;18.66;100.00
48636;BME280;34429;52.332;5.614;2022-08-03T04:15:14;101412.47;;;18.68;100.00
48636;BME280;34429;52.332;5.614;2022-08-03T04:17:42;101407.03;;;18.68;100.00
48636;BME280;34429;52.332;5.614;2022-08-03T04:20:10;101409.09;;;18.66;100.00
48636;BME280;34429;52.332;5.614;2022-08-03T04:22:40;101411.00;;;18.57;100.00
48636;BME280;34429;52.332;5.614;2022-08-03T04:25:09;101407.09;;;18.51;100.00
48636;BME280;34429;52.332;5.614;2022-08-03T04:27:42;101411.34;;;18.54;100.00
48636;BME280;34429;52.332;5.614;2022-08-03T04:30:11;101409.63;;;18.53;100.00
48636;BME280;34429;52.332;5.614;2022-08-03T04:32:42;101411.53;;;18.52;100.00
48636;BME280;34429;52.332;5.614;2022-08-03T04:35:15;101400.22;;;18.64;100.00
48636;BME280;34429;52.332;5.614;2022-08-03T04:37:45;101401.94;;;18.65;100.00
48636;BME280;34429;52.332;5.614;2022-08-03T04:40:14;101404.66;;;18.65;100.00
48636;BME280;34429;52.332;5.614;2022-08-03T04:42:45;101415.56;;;18.65;100.00
48636;BME280;34429;52.332;5.614;2022-08-03T04:45:15;101409.44;;;18.63;100.00
48636;BME280;34429;52.332;5.614;2022-08-03T04:47:47;101414.56;;;18.58;100.00
48636;BME280;34429;52.332;5.614;2022-08-03T04:50:15;101406.28;;;18.82;100.00
48636;BME280;34429;52.332;5.614;2022-08-03T04:52:44;101412.41;;;18.84;100.00
48636;BME280;34429;52.332;5.614;2022-08-03T04:55:23;101419.09;;;18.82;100.00
48636;BME280;34429;52.332;5.614;2022-08-03T04:57:51;101421.47;;;18.85;100.00
48636;BME280;34429;52.332;5.614;2022-08-03T05:00:20;101424.69;;;18.88;100.00
48636;BME280;34429;52.332;5.614;2022-08-03T05:02:50;101420.78;;;18.83;100.00
48636;BME280;34429;52.332;5.614;2022-08-03T05:05:19;101428.31;;;18.89;100.00
48636;BME280;34429;52.332;5.614;2022-08-03T05:07:47;101421.59;;;19.00;100.00
48636;BME280;34429;52.332;5.614;2022-08-03T05:10:15;101422.78;;;18.97;100.00
48636;BME280;34429;52.332;5.614;2022-08-03T05:12:43;101425.69;;;18.96;100.00
48636;BME280;34429;52.332;5.614;2022-08-03T05:15:12;101425.97;;;19.09;100.00
48636;BME280;34429;52.332;5.614;2022-08-03T05:17:40;101426.13;;;19.16;100.00
48636;BME280;34429;52.332;5.614;2022-08-03T05:20:11;101423.25;;;19.09;100.00
48636;BME280;34429;52.332;5.614;2022-08-03T05:22:39;101431.56;;;19.16;100.00
48636;BME280;34429;52.332;5.614;2022-08-03T05:25:08;101433.59;;;19.22;100.00
48636;BME280;34429;52.332;5.614;2022-08-03T05:27:36;101430.88;;;19.45;100.00
48636;BME280;34429;52.332;5.614;2022-08-03T05:30:04;101439.63;;;19.40;100.00
48636;BME280;34429;52.332;5.614;2022-08-03T05:32:32;101438.75;;;19.40;100.00
48636;BME280;34429;52.332;5.614;2022-08-03T05:35:00;101434.06;;;19.25;100.00
48636;BME280;34429;52.332;5.614;2022-08-03T05:37:31;101437.59;;;19.34;100.00
48636;BME280;34429;52.332;5.614;2022-08-03T05:39:59;101438.56;;;19.41;100.00
48636;BME280;34429;52.332;5.614;2022-08-03T05:42:28;101436.97;;;19.55;100.00
48636;BME280;34429;52.332;5.614;2022-08-03T05:44:56;101435.28;;;19.46;100.00
48636;BME280;34429;52.332;5.614;2022-08-03T05:47:24;101432.19;;;19.49;100.00
48636;BME280;34429;52.332;5.614;2022-08-03T05:49:52;101435.63;;;19.51;100.00
48636;BME280;34429;52.332;5.614;2022-08-03T05:52:20;101436.56;;;19.35;100.00
48636;BME280;34429;52.332;5.614;2022-08-03T05:54:50;101429.44;;;19.57;100.00
48636;BME280;34429;52.332;5.614;2022-08-03T05:57:18;101433.91;;;19.50;100.00
48636;BME280;34429;52.332;5.614;2022-08-03T05:59:46;101436.28;;;19.53;100.00
48636;BME280;34429;52.332;5.614;2022-08-03T06:02:14;101437.31;;;19.52;100.00
48636;BME280;34429;52.332;5.614;2022-08-03T06:04:42;101430.63;;;19.55;100.00
48636;BME280;34429;52.332;5.614;2022-08-03T06:07:11;101432.34;;;19.56;100.00
48636;BME280;34429;52.332;5.614;2022-08-03T06:09:39;101434.09;;;19.72;100.00
48636;BME280;34429;52.332;5.614;2022-08-03T06:12:10;101429.00;;;19.69;100.00
48636;BME280;34429;52.332;5.614;2022-08-03T06:14:38;101433.34;;;19.86;100.00
48636;BME280;34429;52.332;5.614;2022-08-03T06:17:06;101432.25;;;19.95;100.00
48636;BME280;34429;52.332;5.614;2022-08-03T06:19:34;101429.06;;;20.07;100.00
48636;BME280;34429;52.332;5.614;2022-08-03T06:22:02;101429.66;;;20.17;100.00
48636;BME280;34429;52.332;5.614;2022-08-03T06:24:30;101435.78;;;20.19;100.00
48636;BME280;34429;52.332;5.614;2022-08-03T06:26:58;101430.72;;;20.46;100.00
48636;BME280;34429;52.332;5.614;2022-08-03T06:29:29;101429.88;;;20.45;100.00
48636;BME280;34429;52.332;5.614;2022-08-03T06:31:57;101422.50;;;20.46;100.00
48636;BME280;34429;52.332;5.614;2022-08-03T06:34:28;101418.94;;;20.60;100.00
48636;BME280;34429;52.332;5.614;2022-08-03T06:36:56;101434.13;;;20.63;100.00
48636;BME280;34429;52.332;5.614;2022-08-03T06:39:24;101435.81;;;20.64;100.00
48636;BME280;34429;52.332;5.614;2022-08-03T06:41:52;101436.19;;;20.76;100.00
48636;BME280;34429;52.332;5.614;2022-08-03T06:44:20;101437.22;;;21.05;100.00
48636;BME280;34429;52.332;5.614;2022-08-03T06:46:51;101435.81;;;21.09;100.00
48636;BME280;34429;52.332;5.614;2022-08-03T06:49:19;101429.47;;;21.23;100.00
48636;BME280;34429;52.332;5.614;2022-08-03T06:51:47;101434.69;;;21.40;100.00
48636;BME280;34429;52.332;5.614;2022-08-03T06:54:16;101435.19;;;21.28;100.00
48636;BME280;34429;52.332;5.614;2022-08-03T06:56:46;101435.78;;;21.60;100.00
48636;BME280;34429;52.332;5.614;2022-08-03T06:59:14;101433.16;;;21.52;100.00
48636;BME280;34429;52.332;5.614;2022-08-03T07:01:42;101429.44;;;21.60;100.00
48636;BME280;34429;52.332;5.614;2022-08-03T07:04:13;101431.75;;;21.41;100.00
48636;BME280;34429;52.332;5.614;2022-08-03T07:06:41;101424.31;;;21.72;100.00
48636;BME280;34429;52.332;5.614;2022-08-03T07:09:09;101427.53;;;21.82;100.00
48636;BME280;34429;52.332;5.614;2022-08-03T07:11:37;101432.19;;;21.81;100.00
48636;BME280;34429;52.332;5.614;2022-08-03T07:14:05;101434.00;;;21.96;100.00
48636;BME280;34429;52.332;5.614;2022-08-03T07:16:33;101433.72;;;22.12;100.00
48636;BME280;34429;52.332;5.614;2022-08-03T07:19:01;101439.81;;;22.36;100.00
48636;BME280;34429;52.332;5.614;2022-08-03T07:21:32;101437.09;;;22.71;100.00
48636;BME280;34429;52.332;5.614;2022-08-03T07:24:00;101439.06;;;22.49;100.00
48636;BME280;34429;52.332;5.614;2022-08-03T07:26:28;101443.66;;;22.42;100.00
48636;BME280;34429;52.332;5.614;2022-08-03T07:28:56;101441.13;;;22.40;100.00
48636;BME280;34429;52.332;5.614;2022-08-03T07:31:24;101449.16;;;22.42;100.00
48636;BME280;34429;52.332;5.614;2022-08-03T07:33:52;101452.53;;;22.44;100.00
48636;BME280;34429;52.332;5.614;2022-08-03T07:36:21;101446.16;;;22.71;100.00
48636;BME280;34429;52.332;5.614;2022-08-03T07:38:51;101450.41;;;22.74;100.00
48636;BME280;34429;52.332;5.614;2022-08-03T07:41:22;101456.91;;;22.66;100.00
48636;BME280;34429;52.332;5.614;2022-08-03T07:43:50;101452.94;;;23.11;100.00
48636;BME280;34429;52.332;5.614;2022-08-03T07:46:18;101449.06;;;22.98;100.00
48636;BME280;34429;52.332;5.614;2022-08-03T07:48:46;101432.06;;;23.16;100.00
48636;BME280;34429;52.332;5.614;2022-08-03T07:51:14;101428.94;;;23.39;100.00
48636;BME280;34429;52.332;5.614;2022-08-03T07:53:42;101438.25;;;23.38;100.00
48636;BME280;34429;52.332;5.614;2022-08-03T07:56:13;101439.13;;;23.59;100.00
48636;BME280;34429;52.332;5.614;2022-08-03T07:58:41;101439.53;;;23.42;100.00
48636;BME280;34429;52.332;5.614;2022-08-03T08:01:09;101442.50;;;23.54;100.00
48636;BME280;34429;52.332;5.614;2022-08-03T08:03:37;101433.03;;;23.77;100.00
48636;BME280;34429;52.332;5.614;2022-08-03T08:06:05;101426.94;;;23.95;100.00
48636;BME280;34429;52.332;5.614;2022-08-03T08:08:33;101434.97;;;24.03;100.00
48636;BME280;34429;52.332;5.614;2022-08-03T08:11:01;101437.94;;;24.15;100.00
48636;BME280;34429;52.332;5.614;2022-08-03T08:13:32;101433.25;;;24.29;100.00
48636;BME280;34429;52.332;5.614;2022-08-03T08:16:01;101432.19;;;24.23;100.00
48636;BME280;34429;52.332;5.614;2022-08-03T08:18:29;101438.97;;;24.27;100.00
48636;BME280;34429;52.332;5.614;2022-08-03T08:20:58;101437.50;;;24.18;100.00
48636;BME280;34429;52.332;5.614;2022-08-03T08:23:27;101445.09;;;24.36;100.00
48636;BME280;34429;52.332;5.614;2022-08-03T08:25:55;101449.13;;;24.40;100.00
48636;BME280;34429;52.332;5.614;2022-08-03T08:28:23;101448.47;;;24.52;100.00
48636;BME280;34429;52.332;5.614;2022-08-03T08:30:54;101452.28;;;24.44;100.00
48636;BME280;34429;52.332;5.614;2022-08-03T08:33:22;101442.75;;;24.66;100.00
48636;BME280;34429;52.332;5.614;2022-08-03T08:35:51;101443.81;;;24.45;100.00
48636;BME280;34429;52.332;5.614;2022-08-03T08:38:20;101446.78;;;24.51;100.00
48636;BME280;34429;52.332;5.614;2022-08-03T08:40:48;101448.69;;;24.43;100.00
48636;BME280;34429;52.332;5.614;2022-08-03T08:43:16;101445.34;;;25.13;100.00
48636;BME280;34429;52.332;5.614;2022-08-03T08:45:44;101447.50;;;24.98;100.00
48636;BME280;34429;52.332;5.614;2022-08-03T08:48:16;101444.25;;;25.14;100.00
48636;BME280;34429;52.332;5.614;2022-08-03T08:50:44;101452.91;;;25.25;100.00
48636;BME280;34429;52.332;5.614;2022-08-03T08:53:13;101452.13;;;25.11;100.00
48636;BME280;34429;52.332;5.614;2022-08-03T08:55:42;101441.50;;;25.60;100.00
48636;BME280;34429;52.332;5.614;2022-08-03T08:58:13;101439.72;;;25.40;100.00
48636;BME280;34429;52.332;5.614;2022-08-03T09:00:43;101449.50;;;25.36;100.00
48636;BME280;34429;52.332;5.614;2022-08-03T09:03:12;101442.19;;;25.48;100.00
48636;BME280;34429;52.332;5.614;2022-08-03T09:05:44;101445.97;;;25.86;100.00
48636;BME280;34429;52.332;5.614;2022-08-03T09:08:13;101442.63;;;25.84;100.00
48636;BME280;34429;52.332;5.614;2022-08-03T09:10:41;101428.84;;;25.84;100.00
48636;BME280;34429;52.332;5.614;2022-08-03T09:13:09;101442.25;;;26.49;100.00
48636;BME280;34429;52.332;5.614;2022-08-03T09:15:37;101438.25;;;26.45;100.00
48636;BME280;34429;52.332;5.614;2022-08-03T09:18:06;101439.28;;;26.51;100.00
48636;BME280;34429;52.332;5.614;2022-08-03T09:20:34;101431.28;;;25.92;100.00
48636;BME280;34429;52.332;5.614;2022-08-03T09:23:06;101447.75;;;26.31;100.00
48636;BME280;34429;52.332;5.614;2022-08-03T09:25:36;101443.63;;;26.58;100.00
48636;BME280;34429;52.332;5.614;2022-08-03T09:28:06;101442.47;;;26.73;100.00
48636;BME280;34429;52.332;5.614;2022-08-03T09:30:34;101436.59;;;26.63;100.00
48636;BME280;34429;52.332;5.614;2022-08-03T09:33:03;101428.50;;;26.68;100.00
48636;BME280;34429;52.332;5.614;2022-08-03T09:35:31;101433.47;;;26.96;100.00
48636;BME280;34429;52.332;5.614;2022-08-03T09:38:12;101436.25;;;27.26;100.00
48636;BME280;34429;52.332;5.614;2022-08-03T09:40:40;101428.34;;;27.60;100.00
48636;BME280;34429;52.332;5.614;2022-08-03T09:43:09;101436.81;;;27.35;100.00
48636;BME280;34429;52.332;5.614;2022-08-03T09:45:37;101444.50;;;27.64;100.00
48636;BME280;34429;52.332;5.614;2022-08-03T09:48:22;101435.78;;;27.48;100.00
48636;BME280;34429;52.332;5.614;2022-08-03T09:50:51;101438.06;;;27.02;100.00
48636;BME280;34429;52.332;5.614;2022-08-03T09:53:22;101432.75;;;27.38;100.00
48636;BME280;34429;52.332;5.614;2022-08-03T09:55:51;101438.72;;;27.35;100.00
48636;BME280;34429;52.332;5.614;2022-08-03T09:58:20;101435.38;;;27.87;100.00
48636;BME280;34429;52.332;5.614;2022-08-03T10:00:51;101432.34;;;27.65;100.00
48636;BME280;34429;52.332;5.614;2022-08-03T10:03:20;101441.59;;;27.70;100.00
48636;BME280;34429;52.332;5.614;2022-08-03T10:05:54;101440.28;;;27.61;100.00
48636;BME280;34429;52.332;5.614;2022-08-03T10:08:25;101442.53;;;27.94;100.00
48636;BME280;34429;52.332;5.614;2022-08-03T10:10:56;101436.97;;;27.94;100.00
48636;BME280;34429;52.332;5.614;2022-08-03T10:13:24;101446.09;;;27.83;100.00
48636;BME280;34429;52.332;5.614;2022-08-03T10:15:52;101449.06;;;27.70;100.00
48636;BME280;34429;52.332;5.614;2022-08-03T10:18:20;101439.69;;;27.71;100.00
48636;BME280;34429;52.332;5.614;2022-08-03T10:20:50;101448.06;;;27.94;100.00
48636;BME280;34429;52.332;5.614;2022-08-03T10:23:19;101432.91;;;28.32;100.00
48636;BME280;34429;52.332;5.614;2022-08-03T10:25:52;101444.59;;;28.58;100.00
48636;BME280;34429;52.332;5.614;2022-08-03T10:28:21;101430.75;;;28.58;100.00
48636;BME280;34429;52.332;5.614;2022-08-03T10:30:50;101433.53;;;28.46;100.00
48636;BME280;34429;52.332;5.614;2022-08-03T10:33:20;101425.47;;;28.21;100.00
48636;BME280;34429;52.332;5.614;2022-08-03T10:35:49;101418.16;;;28.27;100.00
48636;BME280;34429;52.332;5.614;2022-08-03T10:38:19;101423.94;;;28.25;100.00
48636;BME280;34429;52.332;5.614;2022-08-03T10:40:52;101417.28;;;28.38;100.00
48636;BME280;34429;52.332;5.614;2022-08-03T10:43:21;101419.88;;;28.92;100.00
48636;BME280;34429;52.332;5.614;2022-08-03T10:45:52;101416.19;;;29.15;100.00
48636;BME280;34429;52.332;5.614;2022-08-03T10:48:20;101422.25;;;29.00;100.00
48636;BME280;34429;52.332;5.614;2022-08-03T10:50:49;101418.31;;;28.84;100.00
48636;BME280;34429;52.332;5.614;2022-08-03T10:53:32;101428.25;;;28.97;100.00
48636;BME280;34429;52.332;5.614;2022-08-03T10:56:07;101412.00;;;29.42;100.00
48636;BME280;34429;52.332;5.614;2022-08-03T10:59:10;101407.50;;;28.83;100.00
48636;BME280;34429;52.332;5.614;2022-08-03T11:01:51;101404.84;;;28.76;100.00
48636;BME280;34429;52.332;5.614;2022-08-03T11:04:19;101403.53;;;28.55;100.00
48636;BME280;34429;52.332;5.614;2022-08-03T11:07:16;101407.16;;;28.67;100.00
48636;BME280;34429;52.332;5.614;2022-08-03T11:09:39;101401.34;;;29.22;100.00
48636;BME280;34429;52.332;5.614;2022-08-03T11:12:19;101404.97;;;29.10;100.00
48636;BME280;34429;52.332;5.614;2022-08-03T11:14:50;101397.25;;;29.24;100.00
48636;BME280;34429;52.332;5.614;2022-08-03T11:17:19;101401.75;;;29.59;100.00
48636;BME280;34429;52.332;5.614;2022-08-03T11:19:48;101406.97;;;29.73;95.92
48636;BME280;34429;52.332;5.614;2022-08-03T11:22:17;101404.81;;;30.09;100.00
48636;BME280;34429;52.332;5.614;2022-08-03T11:24:58;101417.84;;;30.42;100.00
48636;BME280;34429;52.332;5.614;2022-08-03T11:27:30;101411.19;;;30.26;91.60
48636;BME280;34429;52.332;5.614;2022-08-03T11:30:05;101408.50;;;29.80;98.31
48636;BME280;34429;52.332;5.614;2022-08-03T11:35:17;101406.75;;;30.08;90.00
48636;BME280;34429;52.332;5.614;2022-08-03T11:38:00;101400.63;;;29.89;90.52
48636;BME280;34429;52.332;5.614;2022-08-03T11:40:32;101409.44;;;30.59;90.23
48636;BME280;34429;52.332;5.614;2022-08-03T11:43:01;101409.53;;;29.91;82.40
48636;BME280;34429;52.332;5.614;2022-08-03T11:45:32;101404.81;;;30.09;91.88
48636;BME280;34429;52.332;5.614;2022-08-03T11:48:02;101424.16;;;29.86;85.24
48636;BME280;34429;52.332;5.614;2022-08-03T11:50:39;101417.84;;;30.42;84.15
48636;BME280;34429;52.332;5.614;2022-08-03T11:53:11;101410.09;;;30.27;84.78
48636;BME280;34429;52.332;5.614;2022-08-03T11:55:40;101414.09;;;30.53;86.14
48636;BME280;34429;52.332;5.614;2022-08-03T11:58:14;101410.38;;;30.09;77.69
48636;BME280;34429;52.332;5.614;2022-08-03T12:00:45;101411.84;;;30.16;81.92
48636;BME280;34429;52.332;5.614;2022-08-03T12:03:16;101410.22;;;30.54;76.49
48636;BME280;34429;52.332;5.614;2022-08-03T12:05:46;101401.09;;;30.03;77.48
48636;BME280;34429;52.332;5.614;2022-08-03T12:08:14;101413.34;;;30.58;85.82
48636;BME280;34429;52.332;5.614;2022-08-03T12:10:47;101418.69;;;30.87;80.67
48636;BME280;34429;52.332;5.614;2022-08-03T12:13:15;101415.91;;;30.09;72.62
48636;BME280;34429;52.332;5.614;2022-08-03T12:15:49;101404.97;;;30.19;74.40
48636;BME280;34429;52.332;5.614;2022-08-03T12:18:17;101415.38;;;30.90;81.62
48636;BME280;34429;52.332;5.614;2022-08-03T12:20:46;101405.69;;;31.15;76.47
48636;BME280;34429;52.332;5.614;2022-08-03T12:23:14;101403.38;;;31.06;71.59
48636;BME280;34429;52.332;5.614;2022-08-03T12:25:43;101406.28;;;31.17;74.00
48636;BME280;34429;52.332;5.614;2022-08-03T12:28:12;101418.72;;;31.36;64.05
48636;BME280;34429;52.332;5.614;2022-08-03T12:30:43;101411.78;;;31.12;66.26
48636;BME280;34429;52.332;5.614;2022-08-03T12:33:24;101413.78;;;30.72;70.71
48636;BME280;34429;52.332;5.614;2022-08-03T12:36:01;101419.66;;;31.20;70.99
48636;BME280;34429;52.332;5.614;2022-08-03T12:38:30;101414.84;;;31.10;66.91
48636;BME280;34429;52.332;5.614;2022-08-03T12:41:00;101415.47;;;30.95;67.36
48636;BME280;34429;52.332;5.614;2022-08-03T12:43:28;101414.81;;;31.37;69.02
48636;BME280;34429;52.332;5.614;2022-08-03T12:46:09;101418.69;;;31.09;65.77
48636;BME280;34429;52.332;5.614;2022-08-03T12:51:23;101412.09;;;30.71;67.22
48636;BME280;34429;52.332;5.614;2022-08-03T12:53:52;101414.09;;;30.98;69.96
48636;BME280;34429;52.332;5.614;2022-08-03T12:56:20;101412.31;;;31.36;61.81
48636;BME280;34429;52.332;5.614;2022-08-03T12:58:48;101401.47;;;31.94;58.50
48636;BME280;34429;52.332;5.614;2022-08-03T13:01:17;101403.19;;;31.68;58.83